ADDS TAF Data INFO
IDs: Format: Raw Decoded Include METARs

Data at: 2020 UTC 22 Apr 2018

KCNM 221953Z AUTO 16008KT 10SM CLR 19/03 A3012 RMK AO2 SLP169 T01890033

KCNM 221720Z 2218/2318 15007KT P6SM SCT150 BKN200